createdAt,value
2022-08-25T00:00:58.021Z,62.58
2022-08-25T00:03:03.077Z,62.48
2022-08-25T00:05:10.657Z,62.22
2022-08-25T00:07:18.671Z,62.25
2022-08-25T00:09:29.230Z,62.62
2022-08-25T00:11:36.470Z,62.71
2022-08-25T00:13:43.930Z,63.14
2022-08-25T00:15:49.225Z,63.22
2022-08-25T00:17:54.394Z,63.31
2022-08-25T00:19:58.936Z,63.46
2022-08-25T00:22:05.232Z,63.68
2022-08-25T00:24:11.060Z,63.86
2022-08-25T00:26:19.470Z,63.54
2022-08-25T00:28:24.652Z,63.92
2022-08-25T00:30:29.229Z,64.28
2022-08-25T00:32:34.500Z,64.40
2022-08-25T00:34:41.322Z,64.44
2022-08-25T00:36:47.296Z,64.36
2022-08-25T00:38:52.564Z,63.94
2022-08-25T00:41:08.575Z,63.83
2022-08-25T00:43:16.076Z,64.17
2022-08-25T00:45:21.605Z,63.87
2022-08-25T00:47:26.431Z,63.94
2022-08-25T00:49:34.594Z,64.36
2022-08-25T00:51:45.751Z,64.27
2022-08-25T00:53:51.381Z,64.15
2022-08-25T00:55:56.458Z,64.51
2022-08-25T00:58:03.402Z,64.48
2022-08-25T01:00:16.134Z,64.29
2022-08-25T01:02:21.761Z,64.41
2022-08-25T01:04:26.805Z,64.88
2022-08-25T01:06:32.214Z,64.97
2022-08-25T01:08:37.383Z,65.79
2022-08-25T01:10:45.687Z,65.37
2022-08-25T01:12:50.928Z,65.85
2022-08-25T01:14:56.730Z,65.85
2022-08-25T01:17:04.580Z,65.98
2022-08-25T01:19:15.185Z,65.79
2022-08-25T01:21:25.432Z,66.29
2022-08-25T01:23:30.508Z,66.45
2022-08-25T01:25:42.460Z,66.38
2022-08-25T01:27:47.280Z,66.56
2022-08-25T01:29:52.648Z,66.49
2022-08-25T01:32:00.353Z,66.46
2022-08-25T01:34:06.205Z,66.60
2022-08-25T01:36:11.261Z,66.54
2022-08-25T01:38:21.023Z,66.23
2022-08-25T01:40:28.076Z,66.72
2022-08-25T01:42:44.764Z,66.23
2022-08-25T01:44:50.545Z,66.71
2022-08-25T01:46:56.675Z,66.65
2022-08-25T01:49:06.585Z,66.92
2022-08-25T01:51:11.815Z,67.13
2022-08-25T01:53:21.706Z,67.52
2022-08-25T01:55:26.989Z,66.99
2022-08-25T01:57:32.119Z,67.63
2022-08-25T01:59:36.933Z,67.48
2022-08-25T02:01:41.865Z,67.28
2022-08-25T02:03:49.733Z,67.05
2022-08-25T02:05:56.910Z,67.14
2022-08-25T02:08:02.011Z,67.43
2022-08-25T02:10:10.609Z,66.96
2022-08-25T02:12:15.590Z,67.48
2022-08-25T02:14:21.317Z,67.59
2022-08-25T02:16:30.886Z,67.02
2022-08-25T02:18:35.792Z,67.25
2022-08-25T02:20:41.067Z,67.57
2022-08-25T02:22:48.974Z,67.43
2022-08-25T02:25:01.445Z,67.53
2022-08-25T02:27:10.264Z,68.24
2022-08-25T02:29:16.429Z,68.22
2022-08-25T02:31:23.665Z,68.42
2022-08-25T02:33:28.835Z,68.18
2022-08-25T02:35:33.432Z,68.91
2022-08-25T02:37:39.840Z,68.92
2022-08-25T02:39:44.773Z,68.76
2022-08-25T02:41:49.635Z,69.34
2022-08-25T02:43:57.115Z,69.44
2022-08-25T02:46:02.160Z,69.62
2022-08-25T02:48:09.034Z,69.40
2022-08-25T02:50:15.079Z,69.70
2022-08-25T02:52:20.431Z,69.78
2022-08-25T02:54:26.202Z,69.51
2022-08-25T02:56:32.191Z,69.30
2022-08-25T02:58:37.163Z,69.31
2022-08-25T03:00:46.096Z,69.76
2022-08-25T03:02:51.174Z,69.54
2022-08-25T03:04:57.333Z,69.93
2022-08-25T03:07:03.870Z,70.16
2022-08-25T03:09:08.792Z,70.18
2022-08-25T03:11:14.118Z,70.33
2022-08-25T03:13:19.721Z,70.13
2022-08-25T03:15:26.120Z,70.79
2022-08-25T03:17:33.914Z,71.06
2022-08-25T03:19:40.837Z,70.72
2022-08-25T03:21:45.946Z,70.67
2022-08-25T03:23:50.586Z,70.96
2022-08-25T03:26:09.285Z,70.60
2022-08-25T03:28:14.781Z,70.73
2022-08-25T03:30:19.629Z,70.83
2022-08-25T03:32:24.460Z,70.78
2022-08-25T03:34:33.127Z,70.73
2022-08-25T03:36:38.202Z,70.70
2022-08-25T03:38:43.191Z,70.57
2022-08-25T03:40:48.111Z,70.62
2022-08-25T03:42:53.064Z,70.79
2022-08-25T03:44:57.939Z,70.64
2022-08-25T03:47:02.807Z,70.90
2022-08-25T03:49:10.518Z,70.72
2022-08-25T03:51:22.752Z,70.81
2022-08-25T03:53:27.631Z,70.74
2022-08-25T03:55:32.904Z,71.01
2022-08-25T03:57:38.263Z,70.92
2022-08-25T03:59:43.217Z,71.18
2022-08-25T04:01:54.463Z,71.37
2022-08-25T04:04:00.299Z,71.14
2022-08-25T04:06:05.420Z,71.49
2022-08-25T04:08:13.089Z,71.12
2022-08-25T04:10:18.394Z,71.25
2022-08-25T04:12:23.489Z,71.00
2022-08-25T04:14:28.128Z,71.12
2022-08-25T04:16:35.875Z,71.39
2022-08-25T04:18:41.139Z,71.42
2022-08-25T04:20:47.565Z,71.12
2022-08-25T04:22:52.341Z,71.21
2022-08-25T04:25:01.464Z,71.11
2022-08-25T04:27:06.804Z,70.93
2022-08-25T04:29:13.214Z,71.55
2022-08-25T04:31:20.124Z,71.05
2022-08-25T04:33:25.041Z,71.28
2022-08-25T04:35:29.900Z,71.22
2022-08-25T04:37:35.257Z,70.82
2022-08-25T04:39:40.714Z,70.77
2022-08-25T04:41:48.204Z,70.82
2022-08-25T04:43:53.744Z,70.56
2022-08-25T04:45:58.823Z,70.90
2022-08-25T04:48:03.779Z,70.43
2022-08-25T04:50:09.617Z,70.50
2022-08-25T04:52:14.813Z,70.85
2022-08-25T04:54:21.818Z,71.18
2022-08-25T04:56:27.719Z,70.96
2022-08-25T04:58:35.580Z,70.56
2022-08-25T05:00:41.015Z,70.55
2022-08-25T05:02:45.857Z,70.80
2022-08-25T05:04:50.776Z,70.51
2022-08-25T05:06:55.694Z,70.07
2022-08-25T05:09:01.731Z,70.36
2022-08-25T05:11:09.048Z,70.08
2022-08-25T05:13:13.985Z,69.89
2022-08-25T05:15:34.405Z,70.46
2022-08-25T05:17:39.298Z,70.30
2022-08-25T05:19:44.419Z,70.94
2022-08-25T05:21:48.977Z,70.69
2022-08-25T05:23:58.340Z,70.92
2022-08-25T05:26:07.728Z,71.33
2022-08-25T05:28:13.266Z,71.01
2022-08-25T05:30:18.153Z,71.19
2022-08-25T05:32:25.566Z,71.25
2022-08-25T05:34:31.209Z,70.99
2022-08-25T05:36:36.610Z,71.03
2022-08-25T05:38:42.691Z,70.51
2022-08-25T05:40:47.609Z,70.65
2022-08-25T05:42:52.453Z,70.24
2022-08-25T05:44:58.750Z,69.86
2022-08-25T05:47:03.582Z,69.99
2022-08-25T05:49:11.022Z,69.95
2022-08-25T05:51:16.550Z,69.96
2022-08-25T05:53:21.638Z,69.82
2022-08-25T05:55:26.555Z,69.54
2022-08-25T05:57:31.440Z,69.86
2022-08-25T05:59:36.512Z,69.42
2022-08-25T06:01:53.885Z,69.16
2022-08-25T06:04:00.162Z,69.41
2022-08-25T06:06:11.906Z,69.51
2022-08-25T06:08:17.436Z,69.48
2022-08-25T06:10:22.980Z,69.36
2022-08-25T06:12:27.833Z,69.01
2022-08-25T06:14:32.737Z,68.87
2022-08-25T06:16:38.590Z,69.00
2022-08-25T06:18:43.711Z,68.79
2022-08-25T06:20:48.600Z,68.74
2022-08-25T06:22:56.957Z,68.90
2022-08-25T06:25:01.805Z,69.09
2022-08-25T06:27:08.036Z,69.22
2022-08-25T06:29:14.196Z,68.57
2022-08-25T06:31:19.569Z,68.04
2022-08-25T06:33:24.579Z,67.29
2022-08-25T06:35:29.748Z,66.58
2022-08-25T06:37:36.445Z,65.67
2022-08-25T06:39:44.278Z,65.83
2022-08-25T06:41:54.029Z,66.14
2022-08-25T06:44:05.453Z,65.99
2022-08-25T06:46:14.869Z,65.79
2022-08-25T06:48:20.001Z,65.93
2022-08-25T06:50:24.827Z,65.69
2022-08-25T06:52:29.999Z,66.01
2022-08-25T06:54:34.911Z,65.75
2022-08-25T06:56:43.566Z,65.68
2022-08-25T06:58:48.734Z,65.13
2022-08-25T07:00:53.858Z,64.88
2022-08-25T07:03:01.195Z,64.74
2022-08-25T07:05:06.460Z,65.19
2022-08-25T07:07:13.064Z,64.71
2022-08-25T07:09:18.712Z,64.90
2022-08-25T07:11:23.741Z,64.82
2022-08-25T07:13:32.243Z,65.21
2022-08-25T07:15:41.341Z,65.53
2022-08-25T07:17:46.408Z,65.59
2022-08-25T07:19:57.660Z,65.46
2022-08-25T07:22:02.737Z,64.88
2022-08-25T07:24:10.266Z,65.08
2022-08-25T07:26:36.677Z,65.66
2022-08-25T07:28:47.252Z,65.65
2022-08-25T07:30:53.442Z,65.19
2022-08-25T07:32:58.364Z,65.12
2022-08-25T07:35:15.592Z,64.27
2022-08-25T07:37:48.400Z,64.05
2022-08-25T07:39:49.637Z,64.06
2022-08-25T07:41:58.472Z,63.71
2022-08-25T07:44:06.344Z,63.51
2022-08-25T07:46:11.964Z,62.75
2022-08-25T07:48:19.799Z,62.46
2022-08-25T07:50:26.089Z,62.10
2022-08-25T07:52:31.081Z,62.29
2022-08-25T07:54:38.147Z,61.79
2022-08-25T07:56:43.890Z,61.46
2022-08-25T07:58:50.205Z,61.85
2022-08-25T08:00:57.946Z,61.45
2022-08-25T08:03:03.989Z,61.24
2022-08-25T08:05:10.364Z,60.94
2022-08-25T08:07:15.170Z,60.56
2022-08-25T08:09:20.078Z,60.83
2022-08-25T08:11:28.034Z,60.25
2022-08-25T08:13:34.865Z,60.65
2022-08-25T08:15:45.582Z,60.47
2022-08-25T08:17:53.358Z,59.83
2022-08-25T08:19:58.469Z,59.11
2022-08-25T08:22:03.583Z,59.27
2022-08-25T08:24:31.246Z,59.64
2022-08-25T08:26:57.711Z,59.31
2022-08-25T08:29:00.592Z,57.66
2022-08-25T08:31:06.167Z,57.83
2022-08-25T08:33:18.288Z,57.30
2022-08-25T08:35:24.608Z,56.34
2022-08-25T08:37:29.200Z,56.21
2022-08-25T08:39:35.047Z,56.03
2022-08-25T08:42:11.131Z,56.15
2022-08-25T08:44:30.556Z,55.70
2022-08-25T08:46:43.815Z,54.83
2022-08-25T08:48:58.602Z,54.82
2022-08-25T08:51:15.388Z,54.48
2022-08-25T08:53:27.561Z,54.80
2022-08-25T08:55:42.538Z,54.15
2022-08-25T08:57:52.433Z,53.47
2022-08-25T09:00:03.204Z,53.67
2022-08-25T09:02:15.821Z,52.91
2022-08-25T09:04:51.014Z,52.41
2022-08-25T09:07:01.117Z,52.62
2022-08-25T09:09:08.661Z,52.16
2022-08-25T09:11:19.076Z,51.56
2022-08-25T09:13:36.096Z,51.63
2022-08-25T09:16:03.294Z,51.27
2022-08-25T09:18:19.922Z,51.20
2022-08-25T09:20:51.823Z,50.63
2022-08-25T09:23:05.689Z,50.55
2022-08-25T09:25:29.425Z,50.66
2022-08-25T09:27:51.263Z,49.96
2022-08-25T09:30:05.216Z,49.06
2022-08-25T09:32:11.259Z,48.84
2022-08-25T09:34:23.393Z,48.48
2022-08-25T09:36:35.454Z,48.43
2022-08-25T09:38:42.893Z,47.28
2022-08-25T09:40:50.737Z,47.35
2022-08-25T09:42:59.614Z,46.43
2022-08-25T09:45:05.058Z,46.16
2022-08-25T09:47:21.969Z,45.22
2022-08-25T09:49:34.811Z,45.19
2022-08-25T09:51:43.449Z,45.40
2022-08-25T09:53:54.333Z,45.54
2022-08-25T09:56:06.047Z,44.72
2022-08-25T09:58:22.176Z,44.76
2022-08-25T10:00:31.232Z,45.07
2022-08-25T10:02:36.111Z,45.25
2022-08-25T10:04:43.454Z,45.34
2022-08-25T10:06:54.371Z,45.90
2022-08-25T10:09:03.462Z,45.48
2022-08-25T10:11:14.816Z,45.79
2022-08-25T10:13:23.806Z,45.44
2022-08-25T10:15:33.207Z,45.07
2022-08-25T10:17:38.631Z,45.79
2022-08-25T10:19:44.274Z,45.31
2022-08-25T10:22:04.329Z,45.95
2022-08-25T10:24:14.492Z,45.70
2022-08-25T10:26:33.055Z,45.52
2022-08-25T10:28:47.066Z,45.60
2022-08-25T10:31:09.619Z,44.89
2022-08-25T10:33:23.183Z,45.42
2022-08-25T10:35:33.117Z,45.94
2022-08-25T10:37:47.724Z,45.98
2022-08-25T10:40:06.257Z,45.84
2022-08-25T10:42:31.697Z,45.40
2022-08-25T10:44:54.767Z,45.80
2022-08-25T10:47:17.772Z,46.11
2022-08-25T10:49:31.295Z,45.77
2022-08-25T10:51:56.955Z,45.96
2022-08-25T10:54:10.526Z,45.63
2022-08-25T10:56:21.943Z,45.04
2022-08-25T10:58:34.522Z,45.17
2022-08-25T11:00:48.335Z,44.77
2022-08-25T11:03:16.643Z,44.15
2022-08-25T11:05:29.350Z,43.93
2022-08-25T11:07:38.453Z,43.17
2022-08-25T11:09:46.813Z,42.82
2022-08-25T11:12:01.347Z,42.90
2022-08-25T11:14:11.492Z,43.31
2022-08-25T11:16:21.054Z,43.23
2022-08-25T11:18:31.951Z,43.12
2022-08-25T11:20:44.228Z,42.88
2022-08-25T11:22:57.004Z,42.30
2022-08-25T11:25:11.015Z,42.29
2022-08-25T11:27:25.177Z,42.09
2022-08-25T11:29:36.808Z,41.86
2022-08-25T11:31:48.330Z,41.49
2022-08-25T11:33:59.760Z,41.73
2022-08-25T11:36:13.445Z,41.55
2022-08-25T11:38:38.684Z,40.63
2022-08-25T11:41:11.029Z,39.64
2022-08-25T11:43:42.834Z,39.96
2022-08-25T11:45:57.822Z,40.40
2022-08-25T11:48:18.621Z,40.90
2022-08-25T11:50:31.785Z,41.20
2022-08-25T11:52:54.198Z,41.41
2022-08-25T11:54:59.238Z,41.14
2022-08-25T11:57:07.729Z,41.33
2022-08-25T11:59:15.170Z,41.80
2022-08-25T12:01:50.575Z,42.15
2022-08-25T12:04:16.133Z,42.28
2022-08-25T12:06:25.543Z,42.87
2022-08-25T12:08:57.478Z,42.91
2022-08-25T12:11:10.678Z,43.19
2022-08-25T12:13:45.037Z,43.07
2022-08-25T12:16:03.981Z,43.33
2022-08-25T12:18:15.435Z,42.78
2022-08-25T12:20:20.691Z,43.07
2022-08-25T12:22:51.663Z,42.69
2022-08-25T12:25:00.317Z,42.92
2022-08-25T12:27:09.354Z,42.29
2022-08-25T12:29:19.507Z,41.84
2022-08-25T12:31:51.106Z,41.75
2022-08-25T12:34:26.941Z,41.51
2022-08-25T12:36:34.183Z,41.69
2022-08-25T12:38:49.622Z,41.48
2022-08-25T12:41:03.527Z,41.09
2022-08-25T12:43:14.662Z,41.35
2022-08-25T12:45:42.486Z,41.01
2022-08-25T12:47:52.494Z,41.00
2022-08-25T12:50:33.338Z,40.79
2022-08-25T12:52:41.252Z,40.51
2022-08-25T12:54:51.882Z,40.26
2022-08-25T12:57:03.099Z,40.21
2022-08-25T12:59:19.601Z,40.00
2022-08-25T13:01:36.863Z,39.97
2022-08-25T13:04:09.338Z,38.97
2022-08-25T13:06:44.208Z,39.18
2022-08-25T13:09:25.858Z,38.78
2022-08-25T13:11:40.928Z,38.49
2022-08-25T13:13:53.565Z,38.88
2022-08-25T13:16:04.968Z,38.46
2022-08-25T13:18:23.649Z,37.93
2022-08-25T13:20:31.374Z,38.30
2022-08-25T13:22:40.897Z,39.33
2022-08-25T13:24:50.710Z,40.12
2022-08-25T13:26:59.452Z,40.08
2022-08-25T13:29:17.636Z,39.89
2022-08-25T13:31:28.199Z,40.41
2022-08-25T13:33:35.727Z,40.48
2022-08-25T13:36:14.052Z,40.03
2022-08-25T13:38:18.715Z,40.22
2022-08-25T13:40:29.451Z,40.04
2022-08-25T13:42:36.526Z,39.67
2022-08-25T13:44:42.131Z,39.49
2022-08-25T13:47:09.229Z,39.37
2022-08-25T13:49:14.725Z,38.94
2022-08-25T13:51:31.207Z,38.75
2022-08-25T13:53:36.912Z,38.53
2022-08-25T13:55:52.295Z,38.05
2022-08-25T13:57:57.593Z,38.49
2022-08-25T14:00:07.184Z,38.88
2022-08-25T14:02:19.519Z,39.38
2022-08-25T14:04:34.584Z,39.01
2022-08-25T14:06:44.282Z,38.51
2022-08-25T14:08:54.744Z,38.28
2022-08-25T14:11:14.627Z,37.88
2022-08-25T14:13:33.244Z,38.06
2022-08-25T14:15:38.816Z,38.42
2022-08-25T14:19:52.263Z,38.50
2022-08-25T14:22:03.020Z,38.57
2022-08-25T14:24:08.486Z,38.48
2022-08-25T14:26:15.987Z,38.25
2022-08-25T14:28:23.868Z,38.08
2022-08-25T14:30:30.624Z,38.17
2022-08-25T14:32:35.710Z,37.95
2022-08-25T14:34:43.025Z,37.01
2022-08-25T14:36:48.806Z,36.42
2022-08-25T14:38:57.022Z,35.87
2022-08-25T14:41:02.069Z,35.89
2022-08-25T14:43:09.552Z,35.00
2022-08-25T14:45:15.201Z,34.87
2022-08-25T14:47:23.903Z,34.23
2022-08-25T14:49:33.836Z,33.82
2022-08-25T14:51:41.576Z,33.57
2022-08-25T14:53:48.741Z,33.32
2022-08-25T14:55:58.961Z,32.34
2022-08-25T14:58:04.245Z,32.77
2022-08-25T15:00:12.848Z,32.27
2022-08-25T15:02:20.295Z,32.16
2022-08-25T15:04:30.349Z,31.93
2022-08-25T15:06:36.935Z,31.92
2022-08-25T15:08:54.645Z,31.44
2022-08-25T15:11:02.137Z,31.17
2022-08-25T15:13:14.863Z,30.82
2022-08-25T15:15:20.679Z,30.70
2022-08-25T15:17:26.164Z,30.42
2022-08-25T15:19:31.492Z,30.08
2022-08-25T15:21:36.589Z,29.11
2022-08-25T15:23:44.585Z,28.85
2022-08-25T15:25:52.608Z,28.19
2022-08-25T15:28:00.889Z,28.66
2022-08-25T15:30:06.851Z,29.28
2022-08-25T15:32:12.579Z,28.69
2022-08-25T15:34:17.887Z,28.29
2022-08-25T15:36:28.452Z,28.51
2022-08-25T15:38:33.394Z,28.55
2022-08-25T15:40:39.924Z,27.79
2022-08-25T15:42:45.852Z,28.01
2022-08-25T15:44:56.318Z,27.48
2022-08-25T15:47:01.661Z,27.29
2022-08-25T15:49:07.874Z,27.71
2022-08-25T15:51:13.243Z,27.49
2022-08-25T15:53:18.127Z,28.94
2022-08-25T15:55:23.799Z,29.48
2022-08-25T15:57:28.905Z,30.30
2022-08-25T15:59:34.054Z,31.29
2022-08-25T16:01:43.175Z,31.44
2022-08-25T16:03:48.985Z,31.85
2022-08-25T16:05:54.301Z,31.86
2022-08-25T16:07:59.524Z,32.51
2022-08-25T16:10:05.087Z,33.21
2022-08-25T16:12:10.141Z,33.86
2022-08-25T16:14:15.200Z,34.17
2022-08-25T16:16:21.129Z,34.62
2022-08-25T16:18:28.917Z,35.57
2022-08-25T16:20:36.443Z,35.84
2022-08-25T16:22:41.496Z,36.24
2022-08-25T16:24:47.450Z,36.53
2022-08-25T16:26:52.494Z,36.94
2022-08-25T16:29:01.052Z,37.11
2022-08-25T16:31:13.743Z,37.62
2022-08-25T16:33:19.611Z,37.68
2022-08-25T16:35:28.184Z,37.80
2022-08-25T16:37:36.056Z,37.65
2022-08-25T16:39:44.286Z,37.80
2022-08-25T16:41:49.547Z,37.65
2022-08-25T16:43:58.463Z,37.78
2022-08-25T16:46:05.157Z,38.26
2022-08-25T16:48:11.410Z,38.35
2022-08-25T16:50:17.127Z,38.26
2022-08-25T16:52:37.116Z,38.17
2022-08-25T16:55:03.187Z,38.09
2022-08-25T16:57:08.112Z,38.36
2022-08-25T16:59:14.610Z,38.21
2022-08-25T17:01:19.521Z,38.59
2022-08-25T17:03:24.103Z,38.30
2022-08-25T17:05:30.186Z,38.55
2022-08-25T17:07:38.218Z,38.32
2022-08-25T17:09:43.060Z,38.66
2022-08-25T17:11:56.784Z,38.51
2022-08-25T17:14:04.147Z,38.29
2022-08-25T17:16:16.779Z,38.68
2022-08-25T17:18:21.848Z,38.66
2022-08-25T17:20:29.204Z,38.31
2022-08-25T17:22:34.039Z,38.52
2022-08-25T17:24:42.681Z,38.80
2022-08-25T17:26:50.085Z,38.70
2022-08-25T17:28:59.335Z,38.75
2022-08-25T17:31:04.608Z,38.54
2022-08-25T17:33:09.584Z,38.85
2022-08-25T17:35:15.146Z,38.78
2022-08-25T17:37:20.113Z,38.90
2022-08-25T17:39:27.227Z,39.04
2022-08-25T17:41:34.837Z,38.81
2022-08-25T17:43:45.186Z,39.26
2022-08-25T17:45:51.502Z,38.81
2022-08-25T17:47:56.484Z,39.37
2022-08-25T17:50:01.750Z,39.30
2022-08-25T17:52:07.932Z,39.20
2022-08-25T17:54:13.018Z,39.65
2022-08-25T17:56:21.130Z,39.82
2022-08-25T17:58:28.657Z,39.92
2022-08-25T18:00:34.505Z,39.98
2022-08-25T18:02:39.576Z,39.84
2022-08-25T18:04:45.483Z,40.45
2022-08-25T18:06:51.902Z,40.35
2022-08-25T18:09:00.190Z,40.94
2022-08-25T18:11:06.155Z,40.91
2022-08-25T18:13:13.550Z,41.11
2022-08-25T18:15:22.016Z,40.75
2022-08-25T18:17:27.742Z,41.01
2022-08-25T18:19:33.961Z,40.74
2022-08-25T18:21:39.463Z,41.32
2022-08-25T18:23:45.255Z,41.36
2022-08-25T18:25:52.589Z,41.01
2022-08-25T18:28:06.633Z,41.28
2022-08-25T18:30:13.016Z,41.81
2022-08-25T18:32:21.318Z,41.70
2022-08-25T18:34:31.814Z,41.84
2022-08-25T18:36:38.523Z,41.60
2022-08-25T18:38:58.229Z,41.94
2022-08-25T18:41:05.798Z,41.73
2022-08-25T18:43:15.120Z,42.12
2022-08-25T18:45:20.388Z,42.11
2022-08-25T18:47:27.926Z,42.44
2022-08-25T18:49:32.845Z,42.39
2022-08-25T18:51:37.481Z,42.31
2022-08-25T18:53:50.319Z,42.71
2022-08-25T18:55:56.348Z,42.72
2022-08-25T18:58:01.691Z,42.79
2022-08-25T19:00:09.037Z,42.71
2022-08-25T19:02:14.761Z,43.14
2022-08-25T19:04:31.533Z,43.24
2022-08-25T19:06:37.370Z,43.13
2022-08-25T19:08:42.394Z,43.45
2022-08-25T19:10:49.926Z,43.69
2022-08-25T19:12:58.461Z,43.72
2022-08-25T19:15:13.257Z,43.94
2022-08-25T19:17:18.191Z,43.85
2022-08-25T19:19:25.378Z,44.07
2022-08-25T19:21:30.389Z,43.84
2022-08-25T19:23:38.126Z,44.00
2022-08-25T19:25:44.450Z,44.44
2022-08-25T19:27:53.536Z,44.46
2022-08-25T19:29:58.349Z,44.79
2022-08-25T19:32:04.358Z,44.41
2022-08-25T19:34:11.905Z,44.79
2022-08-25T19:36:23.096Z,45.46
2022-08-25T19:38:33.800Z,45.31
2022-08-25T19:40:40.710Z,45.68
2022-08-25T19:42:45.994Z,45.51
2022-08-25T19:44:52.604Z,45.17
2022-08-25T19:46:58.341Z,45.50
2022-08-25T19:49:07.348Z,45.27
2022-08-25T19:51:13.370Z,45.62
2022-08-25T19:53:20.917Z,45.84
2022-08-25T19:55:25.789Z,45.58
2022-08-25T19:57:42.305Z,45.90
2022-08-25T19:59:49.610Z,46.35
2022-08-25T20:01:55.674Z,46.04
2022-08-25T20:04:03.544Z,46.51
2022-08-25T20:06:09.113Z,46.62
2022-08-25T20:08:15.953Z,46.58
2022-08-25T20:10:23.949Z,46.92
2022-08-25T20:12:29.378Z,46.82
2022-08-25T20:14:36.639Z,46.73
2022-08-25T20:16:43.243Z,46.91
2022-08-25T20:18:51.122Z,47.31
2022-08-25T20:20:55.980Z,47.42
2022-08-25T20:23:22.846Z,47.14
2022-08-25T20:25:28.132Z,47.44
2022-08-25T20:27:45.226Z,47.75
2022-08-25T20:29:51.502Z,47.60
2022-08-25T20:31:56.792Z,47.79
2022-08-25T20:34:03.003Z,47.72
2022-08-25T20:36:08.501Z,48.07
2022-08-25T20:38:13.652Z,48.80
2022-08-25T20:40:25.264Z,49.46
2022-08-25T20:42:33.182Z,48.58
2022-08-25T20:44:42.065Z,48.91
2022-08-25T20:46:47.479Z,49.85
2022-08-25T20:48:57.749Z,49.30
2022-08-25T20:51:05.917Z,49.61
2022-08-25T20:53:13.588Z,49.56
2022-08-25T20:55:19.232Z,49.40
2022-08-25T20:57:26.596Z,49.77
2022-08-25T20:59:35.916Z,49.78
2022-08-25T21:01:42.390Z,50.04
2022-08-25T21:03:47.628Z,51.48
2022-08-25T21:05:54.129Z,50.93
2022-08-25T21:08:01.465Z,50.99
2022-08-25T21:10:10.553Z,50.52
2022-08-25T21:12:19.343Z,50.88
2022-08-25T21:14:25.018Z,50.82
2022-08-25T21:16:34.276Z,50.91
2022-08-25T21:18:39.494Z,50.96
2022-08-25T21:20:52.687Z,50.83
2022-08-25T21:22:57.641Z,50.98
2022-08-25T21:25:02.453Z,51.55
2022-08-25T21:27:08.512Z,51.97
2022-08-25T21:29:15.142Z,52.04
2022-08-25T21:31:22.781Z,51.93
2022-08-25T21:33:31.298Z,52.54
2022-08-25T21:35:36.429Z,52.23
2022-08-25T21:37:41.242Z,53.67
2022-08-25T21:39:46.976Z,53.90
2022-08-25T21:41:52.790Z,53.96
2022-08-25T21:43:59.165Z,54.19
2022-08-25T21:46:04.706Z,54.00
2022-08-25T21:48:12.580Z,54.14
2022-08-25T21:50:20.253Z,53.87
2022-08-25T21:52:25.153Z,53.96
2022-08-25T21:54:30.019Z,54.42
2022-08-25T21:56:34.947Z,54.07
2022-08-25T21:58:41.756Z,54.39
2022-08-25T22:00:46.669Z,54.54
2022-08-25T22:02:52.096Z,54.32
2022-08-25T22:04:57.833Z,54.40
2022-08-25T22:07:06.890Z,53.88
2022-08-25T22:09:13.755Z,53.68
2022-08-25T22:11:19.464Z,53.59
2022-08-25T22:13:24.599Z,53.21
2022-08-25T22:15:29.867Z,53.55
2022-08-25T22:17:36.066Z,54.96
2022-08-25T22:19:41.606Z,55.73
2022-08-25T22:21:47.809Z,56.13
2022-08-25T22:23:56.060Z,56.50
2022-08-25T22:26:01.093Z,57.02
2022-08-25T22:28:06.859Z,57.06
2022-08-25T22:30:13.778Z,56.90
2022-08-25T22:32:18.688Z,56.89
2022-08-25T22:34:30.566Z,56.42
2022-08-25T22:36:39.041Z,56.71
2022-08-25T22:38:44.591Z,56.73
2022-08-25T22:40:52.940Z,56.82
2022-08-25T22:42:57.966Z,56.99
2022-08-25T22:45:04.000Z,56.81
2022-08-25T22:47:09.434Z,57.29
2022-08-25T22:49:16.789Z,56.98
2022-08-25T22:51:25.308Z,57.32
2022-08-25T22:53:30.127Z,57.44
2022-08-25T22:55:34.920Z,57.43
2022-08-25T22:57:43.048Z,57.22
2022-08-25T22:59:48.159Z,57.51
2022-08-25T23:01:57.082Z,56.98
2022-08-25T23:04:03.090Z,57.22
2022-08-25T23:06:08.054Z,57.39
2022-08-25T23:08:13.226Z,56.98
2022-08-25T23:10:20.857Z,57.27
2022-08-25T23:12:25.904Z,57.28
2022-08-25T23:14:36.828Z,56.84
2022-08-25T23:16:42.486Z,56.83
2022-08-25T23:18:47.572Z,57.15
2022-08-25T23:21:04.708Z,57.14
2022-08-25T23:23:09.913Z,56.92
2022-08-25T23:25:14.978Z,57.30
2022-08-25T23:27:23.922Z,57.17
2022-08-25T23:29:29.220Z,57.29
2022-08-25T23:31:36.871Z,57.43
2022-08-25T23:33:42.241Z,57.35
2022-08-25T23:35:47.463Z,57.24
2022-08-25T23:37:52.507Z,57.59
2022-08-25T23:39:58.593Z,57.63
2022-08-25T23:42:03.902Z,57.98
2022-08-25T23:44:11.906Z,58.29
2022-08-25T23:46:26.417Z,58.65
2022-08-25T23:48:34.319Z,59.03
2022-08-25T23:50:43.785Z,58.66
2022-08-25T23:52:48.771Z,58.76
2022-08-25T23:54:54.419Z,59.69
2022-08-25T23:56:59.280Z,59.44
2022-08-25T23:59:05.581Z,59.20
